createdAt,value
2019-05-23T00:00:46.219Z,10.53
2019-05-23T00:06:27.931Z,10.23
2019-05-23T00:11:57.391Z,13.23
2019-05-23T00:17:20.815Z,15.17
2019-05-23T00:22:27.410Z,13.57
2019-05-23T00:27:34.183Z,9.77
2019-05-23T00:32:48.186Z,11.73
2019-05-23T00:37:53.208Z,13.47
2019-05-23T00:42:58.256Z,11.90
2019-05-23T00:48:05.538Z,13.73
2019-05-23T00:53:10.811Z,10.77
2019-05-23T00:58:16.943Z,10.63
2019-05-23T01:03:22.563Z,11.27
2019-05-23T01:08:28.032Z,12.53
2019-05-23T01:13:33.376Z,12.63
2019-05-23T01:18:39.248Z,11.93
2019-05-23T01:23:48.727Z,10.97
2019-05-23T01:28:54.947Z,11.10
2019-05-23T01:34:00.081Z,10.20
2019-05-23T01:39:10.211Z,9.67
2019-05-23T01:44:16.401Z,8.13
2019-05-23T01:49:21.728Z,12.47
2019-05-23T01:54:27.353Z,9.37
2019-05-23T01:59:33.455Z,11.50
2019-05-23T02:04:38.655Z,11.43
2019-05-23T02:09:43.837Z,9.07
2019-05-23T02:14:49.915Z,10.20
2019-05-23T02:19:55.499Z,10.43
2019-05-23T02:25:01.836Z,10.00
2019-05-23T02:30:30.147Z,10.00
2019-05-23T02:35:18.622Z,10.03
2019-05-23T02:40:37.318Z,10.33
2019-05-23T02:45:45.444Z,10.13
2019-05-23T02:50:56.427Z,9.63
2019-05-23T02:56:05.760Z,9.10
2019-05-23T03:01:22.712Z,9.13
2019-05-23T03:06:28.335Z,9.73
2019-05-23T03:11:36.722Z,12.40
2019-05-23T03:16:44.156Z,11.60
2019-05-23T03:21:52.542Z,11.63
2019-05-23T03:27:05.131Z,12.77
2019-05-23T03:32:14.325Z,14.50
2019-05-23T03:37:20.231Z,11.03
2019-05-23T03:42:26.529Z,11.60
2019-05-23T03:47:33.231Z,11.67
2019-05-23T03:52:38.420Z,11.80
2019-05-23T03:57:43.651Z,11.97
2019-05-23T04:02:50.436Z,11.57
2019-05-23T04:07:56.828Z,11.70
2019-05-23T04:13:01.959Z,12.77
2019-05-23T04:18:07.585Z,10.57
2019-05-23T04:23:13.606Z,11.07
2019-05-23T04:28:19.603Z,9.30
2019-05-23T04:33:24.560Z,9.20
2019-05-23T04:38:29.989Z,8.70
2019-05-23T04:43:34.932Z,10.23
2019-05-23T04:48:41.066Z,9.43
2019-05-23T04:53:46.020Z,8.53
2019-05-23T04:58:52.417Z,10.13
2019-05-23T05:03:59.732Z,8.80
2019-05-23T05:09:08.668Z,9.60
2019-05-23T05:14:13.856Z,9.70
2019-05-23T05:19:19.615Z,7.73
2019-05-23T05:24:33.351Z,7.57
2019-05-23T05:29:42.891Z,9.60
2019-05-23T05:34:47.957Z,10.43
2019-05-23T05:39:53.000Z,9.87
2019-05-23T05:44:58.605Z,9.77
2019-05-23T05:50:06.897Z,8.83
2019-05-23T05:55:12.612Z,8.77
2019-05-23T06:00:28.926Z,10.47
2019-05-23T06:05:39.230Z,9.77
2019-05-23T06:10:45.210Z,11.87
2019-05-23T06:15:51.035Z,10.10
2019-05-23T06:20:56.415Z,9.10
2019-05-23T06:26:01.702Z,8.77
2019-05-23T06:31:07.766Z,8.70
2019-05-23T06:36:13.348Z,7.30
2019-05-23T06:41:20.151Z,6.73
2019-05-23T06:46:25.648Z,8.20
2019-05-23T06:51:31.546Z,6.07
2019-05-23T06:56:36.848Z,5.97
2019-05-23T07:01:41.883Z,7.83
2019-05-23T07:12:25.982Z,6.43
2019-05-23T07:17:31.655Z,7.80
2019-05-23T07:22:37.051Z,7.03
2019-05-23T07:27:42.293Z,8.07
2019-05-23T07:32:47.411Z,6.70
2019-05-23T07:37:52.461Z,6.37
2019-05-23T07:42:57.723Z,7.90
2019-05-23T07:48:04.695Z,5.90
2019-05-23T07:53:11.454Z,6.03
2019-05-23T07:58:18.219Z,6.93
2019-05-23T08:03:28.655Z,6.53
2019-05-23T08:08:33.799Z,5.80
2019-05-23T08:13:39.234Z,6.43
2019-05-23T08:18:44.386Z,6.37
2019-05-23T08:23:49.435Z,5.50
2019-05-23T08:29:22.341Z,5.50
2019-05-23T08:34:01.224Z,5.77
2019-05-23T08:39:08.690Z,6.90
2019-05-23T08:44:14.042Z,5.40
2019-05-23T08:49:19.334Z,5.27
2019-05-23T08:54:24.386Z,4.57
2019-05-23T08:59:29.996Z,5.17
2019-05-23T09:04:35.906Z,6.03
2019-05-23T09:09:41.522Z,5.30
2019-05-23T09:14:47.015Z,5.63
2019-05-23T09:19:52.068Z,5.13
2019-05-23T09:24:57.219Z,4.07
2019-05-23T09:30:04.597Z,3.97
2019-05-23T09:35:20.200Z,3.13
2019-05-23T09:40:17.404Z,3.00
2019-05-23T09:45:22.967Z,2.47
2019-05-23T09:50:28.667Z,1.90
2019-05-23T09:55:34.691Z,3.27
2019-05-23T10:00:41.736Z,2.53
2019-05-23T10:05:47.183Z,1.77
2019-05-23T10:10:52.281Z,1.57
2019-05-23T10:15:58.960Z,1.40
2019-05-23T10:21:04.215Z,1.43
2019-05-23T10:26:10.098Z,1.50
2019-05-23T10:31:15.458Z,1.13
2019-05-23T10:36:20.671Z,1.77
2019-05-23T10:41:25.855Z,1.17
2019-05-23T10:46:31.846Z,1.50
2019-05-23T10:51:36.951Z,1.43
2019-05-23T10:56:41.986Z,1.37
2019-05-23T11:01:47.140Z,1.10
2019-05-23T11:06:52.306Z,1.37
2019-05-23T11:11:57.596Z,1.50
2019-05-23T11:17:03.846Z,1.47
2019-05-23T11:22:09.635Z,1.37
2019-05-23T11:27:16.888Z,1.30
2019-05-23T11:32:22.702Z,1.87
2019-05-23T11:37:27.967Z,1.10
2019-05-23T11:42:33.279Z,0.90
2019-05-23T11:47:38.381Z,0.80
2019-05-23T11:52:43.665Z,0.90
2019-05-23T11:57:48.792Z,1.17
2019-05-23T12:02:54.525Z,0.60
2019-05-23T12:07:59.575Z,0.70
2019-05-23T12:13:04.730Z,0.60
2019-05-23T12:18:09.996Z,0.63
2019-05-23T12:23:15.172Z,0.63
2019-05-23T12:28:20.265Z,0.70
2019-05-23T12:33:25.436Z,0.73
2019-05-23T12:38:30.456Z,0.60
2019-05-23T12:43:35.589Z,0.77
2019-05-23T12:48:45.299Z,0.70
2019-05-23T12:53:51.520Z,0.43
2019-05-23T12:58:57.408Z,0.50
2019-05-23T13:04:02.600Z,0.50
2019-05-23T13:09:09.685Z,0.67
2019-05-23T13:14:15.060Z,0.70
2019-05-23T13:19:20.422Z,0.60
2019-05-23T13:24:26.123Z,0.50
2019-05-23T13:29:31.636Z,0.53
2019-05-23T13:34:36.899Z,0.50
2019-05-23T13:39:42.066Z,0.60
2019-05-23T13:44:47.783Z,0.53
2019-05-23T13:49:52.989Z,1.10
2019-05-23T13:54:59.800Z,0.73
2019-05-23T14:00:08.495Z,0.87
2019-05-23T14:05:18.684Z,0.70
2019-05-23T14:10:21.481Z,0.60
2019-05-23T14:15:28.130Z,1.00
2019-05-23T14:20:33.572Z,0.97
2019-05-23T14:25:39.334Z,0.60
2019-05-23T14:30:53.152Z,0.83
2019-05-23T14:36:02.809Z,0.53
2019-05-23T14:41:09.087Z,0.73
2019-05-23T14:46:16.065Z,1.43
2019-05-23T14:51:40.589Z,0.53
2019-05-23T14:56:46.268Z,0.60
2019-05-23T15:01:51.579Z,0.80
2019-05-23T15:06:56.552Z,0.83
2019-05-23T15:12:02.059Z,0.90
2019-05-23T15:17:07.644Z,0.87
2019-05-23T15:22:12.824Z,1.10
2019-05-23T15:27:18.007Z,0.57
2019-05-23T15:32:23.467Z,0.60
2019-05-23T15:37:28.596Z,0.40
2019-05-23T15:42:33.743Z,0.80
2019-05-23T15:47:38.956Z,0.60
2019-05-23T15:52:48.355Z,0.73
2019-05-23T15:58:05.920Z,0.50
2019-05-23T16:03:31.602Z,0.70
2019-05-23T16:08:38.587Z,2.83
2019-05-23T16:13:43.685Z,0.60
2019-05-23T16:18:49.396Z,0.50
2019-05-23T16:23:54.380Z,0.60
2019-05-23T16:28:59.405Z,0.73
2019-05-23T16:34:04.683Z,0.70
2019-05-23T16:39:09.796Z,0.70
2019-05-23T16:44:14.948Z,0.60
2019-05-23T16:49:19.984Z,0.63
2019-05-23T16:54:26.749Z,0.40
2019-05-23T16:59:33.427Z,0.60
2019-05-23T17:04:48.996Z,0.60
2019-05-23T17:10:07.364Z,0.70
2019-05-23T17:15:07.060Z,0.80
2019-05-23T17:20:20.569Z,1.10
2019-05-23T17:25:36.343Z,1.60
2019-05-23T17:30:54.785Z,0.90
2019-05-23T17:35:59.945Z,1.10
2019-05-23T17:41:05.342Z,0.57
2019-05-23T17:46:10.357Z,1.23
2019-05-23T17:51:16.111Z,1.80
2019-05-23T17:56:21.334Z,2.37
2019-05-23T18:01:26.676Z,2.53
2019-05-23T18:06:31.782Z,2.20
2019-05-23T18:11:37.457Z,2.60
2019-05-23T18:16:42.953Z,1.20
2019-05-23T18:21:48.096Z,2.50
2019-05-23T18:26:53.328Z,2.60
2019-05-23T18:31:59.115Z,1.50
2019-05-23T18:37:05.205Z,1.73
2019-05-23T18:42:10.392Z,1.40
2019-05-23T18:47:17.189Z,1.77
2019-05-23T18:52:22.424Z,2.53
2019-05-23T18:57:27.724Z,1.70
2019-05-23T19:02:33.567Z,2.00
2019-05-23T19:07:40.594Z,1.70
2019-05-23T19:12:45.711Z,2.23
2019-05-23T19:17:51.024Z,2.00
2019-05-23T19:22:56.145Z,1.90
2019-05-23T19:28:01.188Z,1.70
2019-05-23T19:33:08.219Z,2.23
2019-05-23T19:38:13.703Z,2.20
2019-05-23T19:43:19.492Z,3.40
2019-05-23T19:48:25.551Z,3.00
2019-05-23T19:53:31.066Z,3.67
2019-05-23T19:58:36.236Z,3.20
2019-05-23T20:03:43.087Z,3.07
2019-05-23T20:08:49.128Z,4.40
2019-05-23T20:13:54.151Z,4.80
2019-05-23T20:18:59.623Z,3.87
2019-05-23T20:24:04.840Z,3.63
2019-05-23T20:29:09.808Z,3.60
2019-05-23T20:34:14.809Z,3.80
2019-05-23T20:39:21.072Z,3.33
2019-05-23T20:44:26.157Z,3.67
2019-05-23T20:49:31.182Z,3.30
2019-05-23T20:54:36.130Z,3.20
2019-05-23T20:59:41.268Z,3.70
2019-05-23T21:04:46.382Z,3.30
2019-05-23T21:09:51.576Z,3.13
2019-05-23T21:14:57.663Z,3.63
2019-05-23T21:20:02.784Z,2.70
2019-05-23T21:25:09.412Z,4.50
2019-05-23T21:30:14.608Z,3.80
2019-05-23T21:35:19.806Z,3.80
2019-05-23T21:40:36.635Z,4.27
2019-05-23T21:45:41.991Z,3.77
2019-05-23T21:50:47.043Z,3.90
2019-05-23T21:55:52.343Z,2.90
2019-05-23T22:01:07.956Z,4.27
2019-05-23T22:06:14.907Z,4.20
2019-05-23T22:11:21.090Z,4.13
2019-05-23T22:16:26.371Z,4.27
2019-05-23T22:21:31.455Z,3.73
2019-05-23T22:26:36.657Z,4.27
2019-05-23T22:31:41.871Z,4.03
2019-05-23T22:36:47.047Z,4.27
2019-05-23T22:41:51.656Z,4.43
2019-05-23T22:46:56.578Z,3.87
2019-05-23T22:52:01.684Z,3.80
2019-05-23T22:57:06.978Z,4.37
2019-05-23T23:02:14.811Z,3.60
2019-05-23T23:07:20.172Z,4.13
2019-05-23T23:12:25.292Z,4.07
2019-05-23T23:17:31.643Z,5.00
2019-05-23T23:22:37.427Z,4.23
2019-05-23T23:27:42.391Z,4.20
2019-05-23T23:32:47.439Z,4.50
2019-05-23T23:37:52.486Z,3.73
2019-05-23T23:42:57.519Z,3.70
2019-05-23T23:48:20.712Z,5.10
2019-05-23T23:53:44.046Z,6.00
2019-05-23T23:58:48.361Z,5.20
